createdAt,value
2022-10-29T00:01:56.492Z,6.43
2022-10-29T00:04:22.809Z,5.75
2022-10-29T00:09:16.299Z,4.93
2022-10-29T00:11:42.634Z,3.83
2022-10-29T00:14:08.916Z,4.53
2022-10-29T00:16:36.557Z,5.40
2022-10-29T00:19:04.167Z,5.60
2022-10-29T00:21:30.706Z,4.72
2022-10-29T00:23:57.565Z,5.13
2022-10-29T00:26:24.852Z,6.03
2022-10-29T00:28:54.891Z,4.88
2022-10-29T00:33:50.837Z,5.30
2022-10-29T00:36:18.923Z,4.78
2022-10-29T00:38:45.526Z,5.05
2022-10-29T00:41:13.030Z,6.47
2022-10-29T00:43:41.448Z,4.82
2022-10-29T00:46:12.536Z,5.30
2022-10-29T00:48:53.814Z,4.80
2022-10-29T00:51:20.492Z,5.10
2022-10-29T00:53:51.897Z,5.45
2022-10-29T00:56:18.373Z,4.43
2022-10-29T00:58:44.975Z,6.50
2022-10-29T01:01:11.384Z,4.57
2022-10-29T01:03:38.587Z,8.05
2022-10-29T01:06:05.236Z,5.30
2022-10-29T01:08:31.512Z,5.03
2022-10-29T01:11:15.364Z,4.10
2022-10-29T01:13:47.904Z,4.28
2022-10-29T01:16:20.118Z,4.63
2022-10-29T01:19:01.238Z,4.57
2022-10-29T01:21:34.756Z,5.65
2022-10-29T01:24:16.274Z,6.10
2022-10-29T01:26:48.586Z,5.10
2022-10-29T01:29:33.668Z,4.28
2022-10-29T01:32:12.500Z,5.88
2022-10-29T01:34:44.844Z,4.32
2022-10-29T01:37:20.726Z,5.32
2022-10-29T01:39:58.145Z,7.03
2022-10-29T01:42:28.841Z,5.53
2022-10-29T01:44:57.835Z,7.47
2022-10-29T01:47:27.677Z,6.07
2022-10-29T01:49:56.757Z,5.10
2022-10-29T01:52:23.136Z,7.35
2022-10-29T01:54:49.415Z,4.32
2022-10-29T01:57:28.704Z,4.70
2022-10-29T01:59:57.109Z,6.45
2022-10-29T02:02:32.080Z,6.55
2022-10-29T02:05:14.968Z,6.28
2022-10-29T02:07:45.447Z,5.70
2022-10-29T02:10:30.507Z,5.43
2022-10-29T02:12:57.434Z,5.97
2022-10-29T02:15:26.888Z,6.05
2022-10-29T02:17:53.806Z,6.65
2022-10-29T02:20:20.449Z,6.03
2022-10-29T02:22:46.755Z,5.93
2022-10-29T02:25:14.273Z,7.18
2022-10-29T02:27:41.696Z,5.35
2022-10-29T02:30:08.278Z,7.80
2022-10-29T02:32:34.552Z,6.03
2022-10-29T02:35:01.413Z,6.38
2022-10-29T02:37:28.121Z,5.75
2022-10-29T02:39:54.375Z,6.32
2022-10-29T02:42:20.654Z,6.88
2022-10-29T02:44:46.913Z,6.57
2022-10-29T02:47:13.285Z,6.30
2022-10-29T02:49:39.557Z,4.85
2022-10-29T02:52:05.842Z,5.32
2022-10-29T02:54:32.185Z,5.55
2022-10-29T02:56:58.558Z,5.22
2022-10-29T02:59:24.821Z,6.05
2022-10-29T03:01:51.194Z,5.65
2022-10-29T03:04:17.541Z,4.57
2022-10-29T03:06:43.808Z,5.20
2022-10-29T03:09:10.098Z,5.18
2022-10-29T03:11:36.374Z,5.22
2022-10-29T03:14:02.683Z,5.60
2022-10-29T03:16:28.993Z,5.63
2022-10-29T03:18:55.303Z,5.78
2022-10-29T03:21:21.648Z,5.93
2022-10-29T03:23:47.931Z,5.00
2022-10-29T03:26:14.203Z,5.10
2022-10-29T03:28:40.556Z,6.53
2022-10-29T03:31:06.878Z,5.00
2022-10-29T03:33:33.165Z,5.57
2022-10-29T03:36:00.176Z,5.35
2022-10-29T03:38:26.806Z,5.60
2022-10-29T03:40:53.077Z,6.47
2022-10-29T03:43:19.515Z,5.45
2022-10-29T03:45:55.320Z,5.50
2022-10-29T03:48:21.973Z,6.05
2022-10-29T03:50:58.701Z,5.38
2022-10-29T03:53:25.113Z,6.95
2022-10-29T03:55:51.844Z,5.45
2022-10-29T03:58:18.165Z,6.03
2022-10-29T04:00:44.454Z,6.85
2022-10-29T04:03:10.734Z,5.93
2022-10-29T04:05:37.034Z,5.90
2022-10-29T04:08:03.832Z,5.47
2022-10-29T04:10:31.233Z,6.18
2022-10-29T04:12:57.908Z,6.80
2022-10-29T04:15:24.418Z,6.03
2022-10-29T04:17:51.995Z,5.60
2022-10-29T04:20:41.296Z,7.00
2022-10-29T04:24:01.171Z,8.88
2022-10-29T04:27:07.884Z,5.97
2022-10-29T04:28:43.625Z,7.80
2022-10-29T04:31:11.659Z,5.07
2022-10-29T04:33:37.953Z,6.25
2022-10-29T04:36:04.581Z,8.57
2022-10-29T04:38:30.939Z,8.02
2022-10-29T04:40:58.326Z,7.53
2022-10-29T04:43:24.629Z,5.85
2022-10-29T04:45:51.661Z,6.88
2022-10-29T04:48:17.948Z,6.47
2022-10-29T04:50:44.289Z,6.53
2022-10-29T04:53:10.620Z,6.65
2022-10-29T04:55:38.370Z,6.85
2022-10-29T04:58:05.515Z,5.72
2022-10-29T05:00:31.847Z,5.40
2022-10-29T05:02:58.505Z,5.53
2022-10-29T05:05:25.301Z,6.32
2022-10-29T05:07:58.796Z,5.22
2022-10-29T05:10:28.923Z,7.30
2022-10-29T05:15:21.793Z,5.45
2022-10-29T05:17:48.428Z,6.00
2022-10-29T05:20:14.706Z,8.88
2022-10-29T05:22:40.981Z,7.15
2022-10-29T05:25:07.381Z,7.18
2022-10-29T05:27:33.669Z,7.82
2022-10-29T05:29:59.954Z,7.05
2022-10-29T05:32:28.625Z,7.60
2022-10-29T05:34:54.918Z,8.05
2022-10-29T05:37:21.257Z,6.95
2022-10-29T05:39:47.522Z,7.28
2022-10-29T05:42:13.968Z,7.15
2022-10-29T05:44:40.272Z,10.20
2022-10-29T05:47:06.577Z,7.82
2022-10-29T05:49:32.954Z,8.32
2022-10-29T05:51:59.232Z,8.50
2022-10-29T05:54:25.531Z,8.75
2022-10-29T05:56:52.176Z,8.18
2022-10-29T05:59:18.536Z,9.15
2022-10-29T06:01:44.994Z,8.98
2022-10-29T06:04:11.524Z,7.47
2022-10-29T06:06:38.721Z,7.00
2022-10-29T06:09:05.098Z,8.38
2022-10-29T06:11:31.375Z,10.93
2022-10-29T06:13:57.669Z,8.70
2022-10-29T06:16:23.951Z,8.38
2022-10-29T06:18:50.308Z,9.27
2022-10-29T06:21:16.601Z,8.30
2022-10-29T06:23:42.883Z,8.75
2022-10-29T06:26:09.134Z,9.07
2022-10-29T06:28:35.409Z,9.13
2022-10-29T06:31:01.725Z,7.82
2022-10-29T06:33:28.050Z,8.88
2022-10-29T06:35:57.791Z,7.43
2022-10-29T06:38:24.115Z,9.77
2022-10-29T06:40:53.778Z,7.57
2022-10-29T06:43:20.280Z,9.95
2022-10-29T06:45:46.551Z,7.90
2022-10-29T06:48:13.860Z,6.65
2022-10-29T06:50:41.749Z,6.65
2022-10-29T06:53:09.949Z,7.20
2022-10-29T06:55:36.228Z,6.88
2022-10-29T06:58:06.665Z,7.00
2022-10-29T07:00:34.064Z,7.00
2022-10-29T07:03:00.827Z,8.30
2022-10-29T07:05:27.608Z,6.78
2022-10-29T07:07:58.026Z,7.15
2022-10-29T07:10:25.990Z,6.78
2022-10-29T07:12:52.464Z,6.43
2022-10-29T07:15:18.787Z,6.53
2022-10-29T07:17:55.046Z,8.07
2022-10-29T07:20:21.473Z,7.88
2022-10-29T07:22:47.835Z,7.32
2022-10-29T07:25:14.128Z,7.40
2022-10-29T07:27:40.468Z,7.70
2022-10-29T07:30:06.941Z,6.35
2022-10-29T07:32:33.220Z,6.78
2022-10-29T07:34:59.487Z,6.32
2022-10-29T07:37:25.761Z,6.63
2022-10-29T07:39:52.026Z,6.25
2022-10-29T07:42:18.882Z,6.70
2022-10-29T07:44:45.145Z,7.43
2022-10-29T07:47:11.427Z,7.70
2022-10-29T07:49:37.701Z,6.07
2022-10-29T07:52:04.062Z,6.53
2022-10-29T07:54:30.360Z,8.68
2022-10-29T07:56:56.682Z,7.88
2022-10-29T07:59:22.989Z,6.43
2022-10-29T08:01:49.433Z,8.05
2022-10-29T08:04:15.765Z,6.40
2022-10-29T08:06:42.071Z,6.45
2022-10-29T08:09:08.345Z,6.45
2022-10-29T08:11:34.647Z,6.60
2022-10-29T08:14:01.046Z,7.07
2022-10-29T08:16:27.322Z,6.45
2022-10-29T08:18:53.605Z,5.72
2022-10-29T08:21:19.893Z,7.40
2022-10-29T08:23:46.175Z,5.50
2022-10-29T08:26:12.535Z,6.07
2022-10-29T08:28:38.818Z,5.32
2022-10-29T08:31:05.180Z,5.03
2022-10-29T08:33:31.459Z,5.68
2022-10-29T08:35:57.744Z,5.95
2022-10-29T08:38:24.031Z,5.53
2022-10-29T08:40:50.309Z,5.35
2022-10-29T08:43:19.661Z,6.20
2022-10-29T08:45:50.839Z,6.03
2022-10-29T08:48:20.210Z,9.55
2022-10-29T08:50:49.765Z,6.15
2022-10-29T08:53:25.155Z,5.32
2022-10-29T08:55:54.056Z,6.38
2022-10-29T08:58:20.358Z,6.28
2022-10-29T09:00:49.397Z,5.57
2022-10-29T09:03:15.769Z,5.07
2022-10-29T09:06:00.101Z,4.95
2022-10-29T09:08:30.989Z,4.97
2022-10-29T09:11:01.215Z,4.82
2022-10-29T09:13:41.825Z,4.75
2022-10-29T09:16:23.284Z,7.32
2022-10-29T09:18:52.576Z,7.22
2022-10-29T09:21:37.285Z,5.07
2022-10-29T09:24:11.036Z,6.65
2022-10-29T09:26:37.313Z,5.03
2022-10-29T09:29:15.665Z,6.45
2022-10-29T09:31:50.462Z,4.97
2022-10-29T09:34:28.916Z,4.95
2022-10-29T09:36:55.991Z,4.78
2022-10-29T09:39:33.114Z,5.28
2022-10-29T09:42:01.618Z,4.78
2022-10-29T09:44:43.583Z,4.72
2022-10-29T09:47:25.215Z,4.78
2022-10-29T09:49:57.427Z,4.18
2022-10-29T09:52:26.844Z,4.95
2022-10-29T09:54:53.699Z,4.93
2022-10-29T09:57:30.674Z,4.10
2022-10-29T09:59:59.138Z,4.80
2022-10-29T10:02:43.971Z,5.68
2022-10-29T10:05:13.028Z,4.32
2022-10-29T10:07:42.390Z,4.72
2022-10-29T10:10:22.210Z,4.55
2022-10-29T10:15:26.746Z,6.07
2022-10-29T10:18:06.567Z,5.05
2022-10-29T10:22:59.629Z,3.72
2022-10-29T10:25:33.892Z,3.75
2022-10-29T10:28:04.286Z,4.60
2022-10-29T10:30:30.641Z,4.40
2022-10-29T10:33:10.366Z,4.75
2022-10-29T10:38:09.435Z,4.40
2022-10-29T10:40:36.169Z,3.88
2022-10-29T10:43:05.512Z,4.30
2022-10-29T10:45:37.398Z,3.85
2022-10-29T10:48:07.758Z,3.40
2022-10-29T10:50:34.769Z,4.22
2022-10-29T10:53:15.621Z,4.22
2022-10-29T10:55:46.188Z,4.00
2022-10-29T10:58:20.059Z,4.93
2022-10-29T11:00:52.344Z,3.28
2022-10-29T11:03:21.527Z,4.05
2022-10-29T11:05:54.636Z,3.60
2022-10-29T11:08:41.234Z,4.20
2022-10-29T11:11:10.345Z,3.20
2022-10-29T11:13:39.235Z,3.03
2022-10-29T11:16:08.396Z,3.35
2022-10-29T11:18:43.786Z,5.15
2022-10-29T11:21:10.041Z,4.13
2022-10-29T11:23:45.905Z,5.05
2022-10-29T11:26:20.163Z,2.50
2022-10-29T11:28:53.995Z,3.00
2022-10-29T11:31:24.477Z,2.78
2022-10-29T11:33:54.581Z,3.03
2022-10-29T11:36:25.389Z,3.75
2022-10-29T11:39:01.711Z,3.22
2022-10-29T11:41:34.574Z,3.17
2022-10-29T11:44:00.883Z,3.35
2022-10-29T11:46:46.294Z,3.60
2022-10-29T11:49:30.737Z,2.75
2022-10-29T11:52:04.811Z,3.58
2022-10-29T11:54:43.244Z,4.78
2022-10-29T11:57:20.160Z,2.95
2022-10-29T12:00:04.140Z,3.53
2022-10-29T12:02:30.416Z,3.45
2022-10-29T12:05:14.998Z,3.55
2022-10-29T12:08:00.281Z,4.13
2022-10-29T12:10:26.625Z,3.97
2022-10-29T12:12:52.969Z,3.63
2022-10-29T12:15:19.357Z,5.13
2022-10-29T12:17:53.213Z,3.88
2022-10-29T12:20:26.821Z,3.60
2022-10-29T12:23:05.910Z,5.07
2022-10-29T12:25:34.343Z,3.95
2022-10-29T12:28:22.192Z,2.78
2022-10-29T12:30:51.276Z,3.40
2022-10-29T12:33:25.041Z,3.88
2022-10-29T12:36:04.421Z,3.45
2022-10-29T12:38:41.313Z,4.65
2022-10-29T12:41:17.225Z,3.58
2022-10-29T12:43:43.978Z,3.95
2022-10-29T12:46:34.900Z,3.53
2022-10-29T12:49:20.106Z,3.33
2022-10-29T12:52:05.076Z,3.63
2022-10-29T12:54:37.163Z,3.38
2022-10-29T12:57:12.384Z,5.50
2022-10-29T12:59:39.459Z,3.42
2022-10-29T13:02:21.248Z,3.55
2022-10-29T13:05:05.607Z,3.15
2022-10-29T13:07:32.167Z,3.95
2022-10-29T13:10:17.023Z,3.28
2022-10-29T13:12:52.785Z,4.25
2022-10-29T13:15:20.962Z,3.92
2022-10-29T13:17:48.288Z,2.85
2022-10-29T13:20:21.370Z,3.13
2022-10-29T13:22:47.630Z,3.22
2022-10-29T13:25:32.412Z,3.70
2022-10-29T13:27:59.101Z,3.30
2022-10-29T13:30:27.124Z,6.03
2022-10-29T13:32:53.997Z,3.75
2022-10-29T13:35:24.217Z,3.55
2022-10-29T13:38:08.937Z,3.92
2022-10-29T13:40:56.196Z,3.85
2022-10-29T13:43:23.314Z,3.67
2022-10-29T13:46:02.454Z,3.28
2022-10-29T13:48:30.581Z,4.18
2022-10-29T13:50:57.381Z,3.88
2022-10-29T13:53:27.016Z,4.20
2022-10-29T13:55:53.346Z,3.50
2022-10-29T13:58:26.602Z,3.53
2022-10-29T14:00:54.528Z,4.57
2022-10-29T14:03:26.271Z,3.75
2022-10-29T14:06:15.737Z,4.28
2022-10-29T14:08:46.550Z,5.60
2022-10-29T14:11:14.807Z,4.32
2022-10-29T14:13:43.132Z,2.95
2022-10-29T14:16:10.676Z,4.75
2022-10-29T14:18:46.661Z,3.45
2022-10-29T14:21:14.865Z,4.03
2022-10-29T14:23:53.919Z,5.13
2022-10-29T14:28:52.025Z,5.53
2022-10-29T14:31:22.448Z,3.88
2022-10-29T14:33:59.325Z,2.90
2022-10-29T14:36:25.555Z,3.30
2022-10-29T14:38:54.590Z,4.20
2022-10-29T14:41:21.297Z,3.67
2022-10-29T14:43:53.887Z,4.22
2022-10-29T14:46:25.075Z,4.72
2022-10-29T14:48:54.574Z,5.60
2022-10-29T14:51:21.835Z,5.10
2022-10-29T14:53:53.212Z,4.35
2022-10-29T14:56:20.237Z,4.95
2022-10-29T14:58:47.044Z,4.28
2022-10-29T15:01:15.542Z,6.05
2022-10-29T15:03:42.089Z,4.38
2022-10-29T15:06:18.670Z,3.75
2022-10-29T15:08:46.966Z,4.25
2022-10-29T15:11:33.505Z,4.50
2022-10-29T15:14:00.368Z,4.53
2022-10-29T15:16:27.110Z,5.47
2022-10-29T15:18:53.827Z,4.22
2022-10-29T15:21:24.412Z,4.72
2022-10-29T15:23:54.359Z,4.43
2022-10-29T15:26:21.598Z,4.78
2022-10-29T15:28:49.527Z,3.53
2022-10-29T15:31:18.578Z,6.20
2022-10-29T15:33:45.180Z,4.88
2022-10-29T15:36:11.691Z,3.95
2022-10-29T15:38:52.065Z,5.70
2022-10-29T15:41:18.933Z,3.90
2022-10-29T15:43:52.242Z,4.07
2022-10-29T15:46:22.898Z,5.43
2022-10-29T15:48:49.241Z,5.47
2022-10-29T15:51:15.737Z,5.00
2022-10-29T15:53:42.058Z,3.83
2022-10-29T15:56:12.431Z,4.65
2022-10-29T15:58:38.845Z,4.53
2022-10-29T16:01:05.357Z,5.22
2022-10-29T16:03:35.380Z,4.35
2022-10-29T16:06:06.230Z,4.47
2022-10-29T16:08:32.525Z,6.70
2022-10-29T16:10:59.710Z,7.03
2022-10-29T16:13:26.734Z,6.38
2022-10-29T16:15:53.038Z,6.80
2022-10-29T16:18:19.463Z,7.22
2022-10-29T16:20:45.894Z,8.15
2022-10-29T16:23:12.329Z,7.00
2022-10-29T16:25:38.960Z,6.85
2022-10-29T16:28:05.551Z,6.45
2022-10-29T16:30:32.052Z,6.43
2022-10-29T16:33:00.819Z,5.57
2022-10-29T16:35:28.893Z,6.15
2022-10-29T16:37:55.711Z,5.40
2022-10-29T16:40:23.644Z,5.30
2022-10-29T16:42:50.028Z,5.60
2022-10-29T16:45:18.119Z,5.82
2022-10-29T16:47:44.473Z,5.43
2022-10-29T16:50:15.053Z,6.22
2022-10-29T16:52:41.335Z,5.43
2022-10-29T16:55:07.723Z,6.38
2022-10-29T16:57:33.998Z,6.30
2022-10-29T17:00:00.291Z,6.60
2022-10-29T17:02:26.580Z,6.13
2022-10-29T17:04:52.861Z,6.97
2022-10-29T17:07:19.142Z,6.38
2022-10-29T17:09:45.555Z,6.60
2022-10-29T17:12:12.074Z,6.80
2022-10-29T17:14:38.361Z,7.13
2022-10-29T17:17:04.723Z,4.63
2022-10-29T17:19:31.192Z,5.47
2022-10-29T17:22:00.564Z,7.03
2022-10-29T17:24:27.098Z,5.97
2022-10-29T17:26:53.808Z,7.05
2022-10-29T17:29:20.094Z,5.40
2022-10-29T17:31:46.367Z,5.72
2022-10-29T17:34:12.637Z,7.15
2022-10-29T17:36:43.111Z,6.40
2022-10-29T17:39:09.928Z,5.47
2022-10-29T17:41:36.437Z,8.38
2022-10-29T17:44:02.907Z,6.03
2022-10-29T17:46:29.158Z,9.52
2022-10-29T17:48:55.981Z,8.00
2022-10-29T17:51:22.746Z,7.20
2022-10-29T17:53:49.498Z,6.40
2022-10-29T17:56:15.777Z,6.65
2022-10-29T17:58:42.057Z,8.02
2022-10-29T18:01:09.710Z,6.28
2022-10-29T18:03:36.649Z,7.63
2022-10-29T18:06:04.490Z,7.57
2022-10-29T18:08:31.220Z,7.60
2022-10-29T18:11:03.641Z,9.80
2022-10-29T18:13:41.120Z,13.32
2022-10-29T18:16:08.501Z,11.85
2022-10-29T18:18:48.103Z,14.02
2022-10-29T18:21:23.387Z,11.48
2022-10-29T18:23:49.904Z,9.38
2022-10-29T18:26:19.175Z,10.90
2022-10-29T18:28:45.447Z,9.68
2022-10-29T18:31:11.717Z,7.88
2022-10-29T18:33:38.019Z,9.38
2022-10-29T18:36:04.485Z,9.27
2022-10-29T18:38:31.028Z,8.57
2022-10-29T18:40:58.285Z,7.80
2022-10-29T18:43:25.653Z,8.60
2022-10-29T18:45:58.886Z,7.55
2022-10-29T18:48:25.709Z,12.18
2022-10-29T18:50:52.140Z,10.68
2022-10-29T18:53:18.817Z,11.70
2022-10-29T18:55:48.760Z,13.15
2022-10-29T18:58:15.042Z,13.23
2022-10-29T19:00:41.321Z,13.07
2022-10-29T19:03:08.342Z,15.20
2022-10-29T19:05:35.557Z,12.65
2022-10-29T19:08:02.111Z,12.15
2022-10-29T19:10:28.394Z,12.00
2022-10-29T19:12:54.664Z,11.68
2022-10-29T19:15:20.941Z,14.05
2022-10-29T19:17:48.151Z,12.05
2022-10-29T19:20:14.503Z,12.40
2022-10-29T19:22:40.775Z,18.52
2022-10-29T19:25:07.265Z,15.35
2022-10-29T19:27:33.542Z,15.15
2022-10-29T19:29:59.897Z,14.25
2022-10-29T19:32:26.260Z,15.85
2022-10-29T19:34:52.541Z,13.85
2022-10-29T19:37:18.805Z,9.70
2022-10-29T19:39:45.084Z,11.13
2022-10-29T19:42:11.360Z,9.13
2022-10-29T19:44:37.629Z,10.65
2022-10-29T19:47:04.016Z,11.30
2022-10-29T19:49:30.408Z,8.73
2022-10-29T19:51:57.448Z,10.15
2022-10-29T19:54:23.837Z,10.27
2022-10-29T19:56:50.170Z,10.30
2022-10-29T19:59:16.510Z,9.73
2022-10-29T20:01:44.336Z,11.13
2022-10-29T20:04:10.700Z,10.82
2022-10-29T20:06:37.017Z,12.95
2022-10-29T20:09:03.342Z,11.05
2022-10-29T20:11:29.616Z,11.50
2022-10-29T20:13:55.916Z,10.52
2022-10-29T20:16:22.296Z,12.95
2022-10-29T20:18:48.998Z,9.80
2022-10-29T20:21:15.773Z,12.50
2022-10-29T20:23:42.383Z,11.38
2022-10-29T20:26:09.076Z,13.27
2022-10-29T20:28:35.505Z,12.75
2022-10-29T20:31:24.329Z,15.27
2022-10-29T20:33:51.516Z,13.32
2022-10-29T20:36:17.940Z,15.00
2022-10-29T20:38:47.344Z,17.60
2022-10-29T20:41:13.604Z,15.63
2022-10-29T20:43:39.880Z,15.50
2022-10-29T20:46:06.348Z,16.17
2022-10-29T20:48:36.039Z,15.57
2022-10-29T20:51:02.649Z,14.73
2022-10-29T20:53:28.930Z,15.23
2022-10-29T20:55:55.224Z,16.27
2022-10-29T20:58:21.942Z,14.23
2022-10-29T21:00:48.368Z,13.70
2022-10-29T21:03:15.272Z,14.80
2022-10-29T21:05:41.687Z,14.02
2022-10-29T21:08:08.554Z,13.98
2022-10-29T21:10:35.607Z,15.85
2022-10-29T21:13:02.507Z,14.25
2022-10-29T21:15:28.834Z,15.45
2022-10-29T21:17:55.113Z,13.93
2022-10-29T21:20:21.385Z,12.90
2022-10-29T21:22:47.642Z,13.50
2022-10-29T21:25:13.984Z,12.27
2022-10-29T21:27:41.032Z,12.06
2022-10-29T21:30:07.751Z,12.32
2022-10-29T21:32:34.192Z,11.20
2022-10-29T21:35:03.688Z,12.32
2022-10-29T21:37:30.106Z,11.98
2022-10-29T21:39:58.128Z,11.35
2022-10-29T21:44:52.764Z,10.57
2022-10-29T21:47:19.110Z,12.45
2022-10-29T21:49:51.982Z,10.63
2022-10-29T21:52:18.435Z,11.70
2022-10-29T21:54:44.937Z,12.85
2022-10-29T21:57:11.195Z,12.00
2022-10-29T21:59:37.466Z,12.32
2022-10-29T22:02:03.857Z,12.77
2022-10-29T22:04:31.522Z,12.55
2022-10-29T22:06:57.860Z,13.65
2022-10-29T22:09:24.311Z,12.05
2022-10-29T22:11:50.607Z,12.02
2022-10-29T22:14:16.986Z,13.95
2022-10-29T22:16:43.255Z,12.27
2022-10-29T22:19:10.110Z,13.48
2022-10-29T22:21:36.431Z,12.38
2022-10-29T22:24:02.929Z,11.77
2022-10-29T22:26:29.836Z,14.32
2022-10-29T22:28:56.278Z,13.60
2022-10-29T22:31:23.758Z,13.68
2022-10-29T22:33:50.364Z,12.82
2022-10-29T22:36:17.822Z,12.50
2022-10-29T22:38:44.541Z,11.82
2022-10-29T22:41:12.087Z,10.65
2022-10-29T22:43:38.785Z,11.07
2022-10-29T22:46:06.176Z,11.38
2022-10-29T22:48:32.667Z,12.48
2022-10-29T22:50:59.888Z,10.85
2022-10-29T22:53:26.259Z,10.70
2022-10-29T22:55:52.967Z,11.68
2022-10-29T22:58:19.241Z,10.32
2022-10-29T23:00:45.718Z,10.55
2022-10-29T23:03:12.353Z,10.75
2022-10-29T23:05:38.639Z,10.70
2022-10-29T23:08:05.042Z,11.90
2022-10-29T23:10:31.494Z,11.23
2022-10-29T23:12:57.769Z,10.43
2022-10-29T23:15:24.056Z,12.05
2022-10-29T23:17:53.377Z,10.32
2022-10-29T23:20:19.685Z,11.65
2022-10-29T23:22:45.952Z,10.68
2022-10-29T23:25:12.246Z,9.98
2022-10-29T23:27:38.528Z,10.25
2022-10-29T23:30:05.051Z,11.50
2022-10-29T23:32:31.317Z,12.48
2022-10-29T23:34:57.609Z,10.98
2022-10-29T23:37:23.912Z,10.85
2022-10-29T23:39:50.613Z,10.48
2022-10-29T23:42:16.876Z,11.32
2022-10-29T23:44:43.148Z,9.82
2022-10-29T23:47:09.420Z,10.45
2022-10-29T23:49:35.825Z,10.13
2022-10-29T23:52:02.095Z,8.82
2022-10-29T23:54:28.405Z,9.57
2022-10-29T23:56:54.672Z,10.57
2022-10-29T23:59:20.948Z,9.68
